Temp: 11.5°C   Baro: 1028.9mb
  Wind: 0.0mph   Dir: NE (51°)
  Rain: 0.0mm (0.0mm/hr)
  Solar: 0W/m2  Hum: 82%
 
Bath Spa Weather Historical Data
Daily Summary for June 10, 2019 Units:  Metric    English   Both
Next Day »
Daily Weekly Monthly Yearly Custom
  High: Low: Average:
Temperature: 16.2 °C 5.9 °C 9.9 °C
Dew Point: 9.8 °C 4.5 °C 7.5 °C
Humidity: 93% 62% 86%
Wind Speed: 30.6km/h 0.0km/h 4.9km/h
Wind Gust: 35.4km/h - -
Wind direction- - SSE
Pressure: 1018.8 hPa 1012.8 hPa -
Precipitation: 10.7 mm    
Historical Graphs
 
 
Tabular Data for June 10, 2019
Time Temperature Dew Point Pressure Wind direction Wind Speed Wind Gust Humidity Rainfall Rate (Hourly) solar
00:04 8.6 °C 6.4 °C 1018.8 hPa Calm     86% 0.0 mm 0.00 W/m2
00:09 8.5 °C 6.3 °C 1018.8 hPa Calm     86% 0.0 mm 0.00 W/m2
00:14 8.5 °C 6.3 °C 1018.8 hPa Calm     86% 0.0 mm 0.00 W/m2
00:19 8.4 °C 6.2 °C 1018.8 hPa Calm     86% 0.0 mm 0.00 W/m2
00:24 8.4 °C 6.4 °C 1018.5 hPa Calm     87% 0.0 mm 0.00 W/m2
00:29 8.3 °C 6.3 °C 1018.5 hPa Calm     87% 0.0 mm 0.00 W/m2
00:34 8.3 °C 6.3 °C 1018.5 hPa Calm     87% 0.0 mm 0.00 W/m2
00:39 8.2 °C 6.2 °C 1018.5 hPa Calm     87% 0.0 mm 0.00 W/m2
00:44 8.2 °C 6.2 °C 1018.5 hPa Calm     87% 0.0 mm 0.00 W/m2
00:49 8.1 °C 6.1 °C 1018.5 hPa Calm     87% 0.0 mm 0.00 W/m2
00:54 8.0 °C 6.0 °C 1018.5 hPa Calm     87% 0.0 mm 0.00 W/m2
00:59 8.0 °C 6.0 °C 1018.5 hPa Calm     87% 0.0 mm 0.00 W/m2
01:04 7.9 °C 6.0 °C 1018.5 hPa Calm     88% 0.0 mm 0.00 W/m2
01:09 7.9 °C 6.0 °C 1018.5 hPa Calm     88% 0.0 mm 0.00 W/m2
01:14 7.8 °C 5.9 °C 1018.5 hPa Calm     88% 0.0 mm 0.00 W/m2
01:19 7.8 °C 5.9 °C 1018.5 hPa Calm     88% 0.0 mm 0.00 W/m2
01:24 7.8 °C 5.9 °C 1018.2 hPa Calm     88% 0.0 mm 0.00 W/m2
01:29 7.7 °C 5.8 °C 1018.5 hPa Calm     88% 0.0 mm 0.00 W/m2
01:34 7.7 °C 5.8 °C 1018.2 hPa Calm     88% 0.0 mm 0.00 W/m2
01:39 7.6 °C 5.7 °C 1018.2 hPa Calm     88% 0.0 mm 0.00 W/m2
01:44 7.5 °C 5.6 °C 1018.2 hPa Calm     88% 0.0 mm 0.00 W/m2
01:49 7.5 °C 5.6 °C 1018.2 hPa Calm     88% 0.0 mm 0.00 W/m2
01:54 7.5 °C 5.8 °C 1018.2 hPa Calm     89% 0.0 mm 0.00 W/m2
01:59 7.4 °C 5.7 °C 1018.2 hPa Calm     89% 0.0 mm 0.00 W/m2
02:04 7.4 °C 5.7 °C 1018.2 hPa Calm     89% 0.0 mm 0.00 W/m2
02:09 7.4 °C 5.7 °C 1018.2 hPa Calm     89% 0.0 mm 0.00 W/m2
02:14 7.3 °C 5.6 °C 1018.2 hPa Calm     89% 0.0 mm 0.00 W/m2
02:19 7.3 °C 5.6 °C 1018.2 hPa Calm     89% 0.0 mm 0.00 W/m2
02:24 7.2 °C 5.5 °C 1018.2 hPa Calm     89% 0.0 mm 0.00 W/m2
02:29 7.2 °C 5.5 °C 1018.2 hPa Calm     89% 0.0 mm 0.00 W/m2
02:34 7.1 °C 5.4 °C 1018.2 hPa Calm     89% 0.0 mm 0.00 W/m2
02:39 7.0 °C 5.3 °C 1018.2 hPa Calm     89% 0.0 mm 0.00 W/m2
02:44 7.0 °C 5.3 °C 1017.8 hPa Calm     89% 0.0 mm 0.00 W/m2
02:49 7.0 °C 5.5 °C 1017.8 hPa Calm     90% 0.0 mm 0.00 W/m2
02:54 7.0 °C 5.5 °C 1017.8 hPa Calm     90% 0.0 mm 0.00 W/m2
02:59 6.9 °C 5.2 °C 1017.8 hPa Calm     89% 0.0 mm 0.00 W/m2
03:04 7.0 °C 5.5 °C 1017.8 hPa Calm     90% 0.0 mm 0.00 W/m2
03:09 6.9 °C 5.4 °C 1017.8 hPa Calm     90% 0.0 mm 0.00 W/m2
03:14 6.8 °C 5.3 °C 1017.8 hPa Calm     90% 0.0 mm 0.00 W/m2
03:19 6.7 °C 5.2 °C 1017.8 hPa Calm     90% 0.0 mm 0.00 W/m2
03:24 6.7 °C 5.2 °C 1017.8 hPa Calm     90% 0.0 mm 0.00 W/m2
03:29 6.6 °C 5.1 °C 1017.8 hPa Calm     90% 0.0 mm 0.00 W/m2
03:34 6.6 °C 5.1 °C 1017.8 hPa Calm     90% 0.0 mm 0.00 W/m2
03:39 6.5 °C 5.0 °C 1017.5 hPa Calm     90% 0.0 mm 0.00 W/m2
03:44 6.5 °C 5.0 °C 1017.5 hPa Calm     90% 0.0 mm 0.00 W/m2
03:49 6.5 °C 5.0 °C 1017.5 hPa Calm     90% 0.0 mm 0.00 W/m2
03:54 6.5 °C 5.0 °C 1017.5 hPa Calm     90% 0.0 mm 0.00 W/m2
03:59 6.4 °C 4.9 °C 1017.5 hPa Calm     90% 0.0 mm 0.00 W/m2
04:04 6.4 °C 4.9 °C 1017.5 hPa Calm     90% 0.0 mm 0.00 W/m2
04:09 6.3 °C 4.8 °C 1017.5 hPa Calm     90% 0.0 mm 0.00 W/m2
04:14 6.3 °C 4.8 °C 1017.5 hPa Calm     90% 0.0 mm 0.00 W/m2
04:19 6.3 °C 4.8 °C 1017.5 hPa Calm     90% 0.0 mm 0.00 W/m2
04:24 6.3 °C 4.9 °C 1017.5 hPa Calm     91% 0.0 mm 0.00 W/m2
04:29 6.2 °C 4.8 °C 1017.5 hPa Calm     91% 0.0 mm 0.00 W/m2
04:34 6.2 °C 4.8 °C 1017.2 hPa Calm     91% 0.0 mm 0.00 W/m2
04:39 6.0 °C 4.6 °C 1017.2 hPa Calm     91% 0.0 mm 0.00 W/m2
04:44 6.0 °C 4.6 °C 1017.2 hPa Calm     91% 0.0 mm 0.00 W/m2
04:49 6.0 °C 4.6 °C 1017.2 hPa Calm     91% 0.0 mm 0.00 W/m2
04:54 6.1 °C 4.7 °C 1017.2 hPa Calm     91% 0.0 mm 0.00 W/m2
04:59 6.0 °C 4.6 °C 1017.2 hPa Calm     91% 0.0 mm 0.00 W/m2
05:04 6.1 °C 4.7 °C 1017.2 hPa Calm     91% 0.0 mm 5.00 W/m2
05:09 6.0 °C 4.6 °C 1016.8 hPa Calm     91% 0.0 mm 7.00 W/m2
05:14 6.0 °C 4.6 °C 1016.8 hPa Calm   1.6 km/h 91% 0.0 mm 9.00 W/m2
05:19 6.0 °C 4.6 °C 1016.8 hPa Calm     91% 0.0 mm 11.00 W/m2
05:24 6.0 °C 4.6 °C 1016.8 hPa Calm     91% 0.0 mm 14.00 W/m2
05:29 6.1 °C 4.7 °C 1016.8 hPa Calm     91% 0.0 mm 16.00 W/m2
05:34 6.1 °C 4.7 °C 1016.8 hPa Calm     91% 0.0 mm 19.00 W/m2
05:39 5.9 °C 4.5 °C 1016.8 hPa Calm     91% 0.0 mm 23.00 W/m2
05:44 5.9 °C 4.5 °C 1016.8 hPa Calm     91% 0.0 mm 23.00 W/m2
05:49 6.0 °C 4.8 °C 1016.8 hPa Calm     92% 0.0 mm 28.00 W/m2
05:54 6.1 °C 4.9 °C 1016.8 hPa Calm   3.2 km/h 92% 0.0 mm 32.00 W/m2
05:59 6.0 °C 4.8 °C 1016.8 hPa Calm   3.2 km/h 92% 0.0 mm 35.00 W/m2
06:04 5.9 °C 4.7 °C 1016.8 hPa Calm   3.2 km/h 92% 0.0 mm 40.00 W/m2
06:09 5.9 °C 4.7 °C 1016.8 hPa Calm     92% 0.0 mm 51.00 W/m2
06:14 5.9 °C 4.7 °C 1016.8 hPa Calm     92% 0.0 mm 60.00 W/m2
06:19 6.1 °C 4.9 °C 1016.8 hPa Calm     92% 0.0 mm 72.00 W/m2
06:24 6.3 °C 5.1 °C 1016.8 hPa Calm   1.6 km/h 92% 0.0 mm 81.00 W/m2
06:29 6.4 °C 5.2 °C 1016.8 hPa Calm     92% 0.0 mm 81.00 W/m2
06:34 6.5 °C 5.3 °C 1016.8 hPa Calm     92% 0.0 mm 88.00 W/m2
06:39 6.5 °C 5.3 °C 1016.8 hPa Calm     92% 0.0 mm 90.00 W/m2
06:44 6.7 °C 5.6 °C 1016.8 hPa WSW 3.2 km/h 3.2 km/h 93% 0.0 mm 105.00 W/m2
06:49 6.6 °C 5.5 °C 1016.8 hPa WSW 3.2 km/h 8.0 km/h 93% 0.0 mm 105.00 W/m2
06:54 6.7 °C 5.6 °C 1016.8 hPa Calm   4.8 km/h 93% 0.0 mm 95.00 W/m2
06:59 6.8 °C 5.7 °C 1016.8 hPa Calm   1.6 km/h 93% 0.0 mm 121.00 W/m2
07:04 6.9 °C 5.8 °C 1016.8 hPa Calm   1.6 km/h 93% 0.0 mm 95.00 W/m2
07:09 7.0 °C 5.9 °C 1016.8 hPa Calm   1.6 km/h 93% 0.0 mm 130.00 W/m2
07:14 7.2 °C 6.1 °C 1016.8 hPa Calm   1.6 km/h 93% 0.0 mm 128.00 W/m2
07:19 7.4 °C 6.3 °C 1016.8 hPa WSW 3.2 km/h 3.2 km/h 93% 0.0 mm 156.00 W/m2
07:24 7.5 °C 6.4 °C 1016.8 hPa Calm   4.8 km/h 93% 0.0 mm 104.00 W/m2
07:29 7.6 °C 6.5 °C 1016.8 hPa Calm   3.2 km/h 93% 0.0 mm 100.00 W/m2
07:34 7.5 °C 6.4 °C 1016.8 hPa Calm   1.6 km/h 93% 0.0 mm 113.00 W/m2
07:39 7.6 °C 6.5 °C 1016.8 hPa Calm     93% 0.0 mm 139.00 W/m2
07:44 7.7 °C 6.6 °C 1016.8 hPa Calm     93% 0.0 mm 155.00 W/m2
07:49 7.9 °C 6.8 °C 1016.8 hPa Calm     93% 0.0 mm 123.00 W/m2
07:54 8.0 °C 6.9 °C 1016.8 hPa Calm     93% 0.0 mm 111.00 W/m2
07:59 8.0 °C 6.9 °C 1016.8 hPa Calm     93% 0.0 mm 130.00 W/m2
08:04 8.1 °C 7.0 °C 1016.8 hPa Calm     93% 0.0 mm 135.00 W/m2
08:09 8.2 °C 7.1 °C 1016.8 hPa Calm     93% 0.0 mm 135.00 W/m2
08:14 8.6 °C 7.5 °C 1016.5 hPa Calm     93% 0.0 mm 169.00 W/m2
08:19 8.7 °C 7.6 °C 1016.8 hPa WSW 3.2 km/h 8.0 km/h 93% 0.0 mm 244.00 W/m2
08:24 8.9 °C 7.8 °C 1016.5 hPa Calm   1.6 km/h 93% 0.0 mm 304.00 W/m2
08:29 9.3 °C 8.2 °C 1016.5 hPa Calm     93% 0.0 mm 345.00 W/m2
08:34 9.7 °C 8.5 °C 1016.5 hPa Calm     92% 0.0 mm 315.00 W/m2
08:39 9.9 °C 8.7 °C 1016.5 hPa WSW 1.4 km/h 4.8 km/h 92% 0.0 mm 315.00 W/m2
08:44 10.0 °C 8.6 °C 1016.5 hPa Calm   4.8 km/h 91% 0.0 mm 304.00 W/m2
08:49 10.5 °C 8.9 °C 1016.5 hPa Calm   3.2 km/h 90% 0.0 mm 360.00 W/m2
08:54 11.0 °C 9.1 °C 1016.5 hPa WSW 6.4 km/h 6.4 km/h 88% 0.0 mm 308.00 W/m2
08:59 11.2 °C 8.9 °C 1016.5 hPa Calm   1.6 km/h 86% 0.0 mm 285.00 W/m2
09:04 11.7 °C 9.3 °C 1016.5 hPa WSW 1.4 km/h 6.4 km/h 85% 0.0 mm 299.00 W/m2
09:09 11.6 °C 9.0 °C 1016.5 hPa WSW 4.7 km/h 8.0 km/h 84% 0.0 mm 302.00 W/m2
09:14 11.8 °C 9.0 °C 1016.5 hPa WSW 3.2 km/h 4.8 km/h 83% 0.0 mm 243.00 W/m2
09:19 11.9 °C 9.1 °C 1016.5 hPa Calm   4.8 km/h 83% 0.0 mm 232.00 W/m2
09:24 12.1 °C 9.1 °C 1016.5 hPa WSW 1.4 km/h 3.2 km/h 82% 0.0 mm 236.00 W/m2
09:29 12.3 °C 9.1 °C 1016.5 hPa North 1.4 km/h 6.4 km/h 81% 0.0 mm 216.00 W/m2
09:34 12.5 °C 9.1 °C 1016.5 hPa NNW 1.4 km/h 6.4 km/h 80% 0.0 mm 206.00 W/m2
09:39 12.8 °C 9.4 °C 1016.5 hPa Calm   1.6 km/h 80% 0.0 mm 229.00 W/m2
09:44 12.9 °C 9.3 °C 1016.5 hPa Calm   6.4 km/h 79% 0.0 mm 264.00 W/m2
09:49 13.0 °C 9.3 °C 1016.5 hPa NE 6.4 km/h 8.0 km/h 78% 0.0 mm 320.00 W/m2
09:54 13.2 °C 9.1 °C 1016.1 hPa ENE 4.7 km/h 8.0 km/h 76% 0.3 mm 376.00 W/m2
09:59 13.5 °C 9.2 °C 1016.1 hPa ENE 1.4 km/h 4.8 km/h 75% 0.3 mm 390.00 W/m2
10:04 13.4 °C 8.7 °C 1016.1 hPa Calm   11.3 km/h 73% 0.3 mm 376.00 W/m2
10:09 13.4 °C 8.9 °C 1016.1 hPa NNE 9.7 km/h 11.3 km/h 74% 0.3 mm 390.00 W/m2
10:14 13.4 °C 8.7 °C 1016.1 hPa North 7.9 km/h 11.3 km/h 73% 0.3 mm 385.00 W/m2
10:19 13.6 °C 8.9 °C 1016.1 hPa NNE 3.2 km/h 6.4 km/h 73% 0.3 mm 339.00 W/m2
10:24 13.6 °C 8.2 °C 1016.1 hPa NE 11.1 km/h 14.5 km/h 70% 0.3 mm 334.00 W/m2
10:29 13.5 °C 8.1 °C 1016.1 hPa North 4.7 km/h 12.9 km/h 70% 0.3 mm 352.00 W/m2
10:34 13.9 °C 8.5 °C 1016.1 hPa NNW 7.9 km/h 8.0 km/h 70% 0.3 mm 309.00 W/m2
10:39 13.9 °C 8.3 °C 1016.1 hPa North 16.3 km/h 16.1 km/h 69% 0.3 mm 327.00 W/m2
10:44 13.5 °C 7.7 °C 1016.1 hPa NE 3.2 km/h 20.9 km/h 68% 0.3 mm 297.00 W/m2
10:49 13.5 °C 7.7 °C 1016.1 hPa North 4.7 km/h 14.5 km/h 68% 0.3 mm 329.00 W/m2
10:54 13.6 °C 7.6 °C 1016.1 hPa North 7.9 km/h 20.9 km/h 67% 0.0 mm 309.00 W/m2
10:59 13.6 °C 7.6 °C 1016.1 hPa North 7.9 km/h 16.1 km/h 67% 0.0 mm 367.00 W/m2
11:04 13.9 °C 7.9 °C 1016.1 hPa ENE 3.2 km/h 16.1 km/h 67% 0.0 mm 329.00 W/m2
11:09 14.2 °C 7.9 °C 1016.1 hPa Calm   14.5 km/h 66% 0.0 mm 346.00 W/m2
11:14 14.5 °C 8.0 °C 1016.1 hPa NNE 9.7 km/h 12.9 km/h 65% 0.0 mm 332.00 W/m2
11:19 14.3 °C 7.8 °C 1016.1 hPa North 6.4 km/h 11.3 km/h 65% 0.0 mm 334.00 W/m2
11:24 13.9 °C 7.2 °C 1015.8 hPa North 17.7 km/h 17.7 km/h 64% 0.0 mm 445.00 W/m2
11:29 14.2 °C 7.7 °C 1015.8 hPa Calm   14.5 km/h 65% 0.0 mm 837.00 W/m2
11:34 14.9 °C 7.7 °C 1015.8 hPa ENE 11.1 km/h 20.9 km/h 62% 0.0 mm 684.00 W/m2
11:39 14.9 °C 8.8 °C 1015.8 hPa East 9.7 km/h 22.5 km/h 67% 0.0 mm 404.00 W/m2
11:44 14.7 °C 8.9 °C 1015.8 hPa NNE 16.3 km/h 16.1 km/h 68% 0.0 mm 279.00 W/m2
11:49 14.4 °C 8.8 °C 1015.5 hPa NNE 6.4 km/h 11.3 km/h 69% 0.0 mm 353.00 W/m2
11:54 14.4 °C 8.8 °C 1015.5 hPa NE 17.7 km/h 17.7 km/h 69% 0.0 mm 545.00 W/m2
11:59 15.3 °C 9.6 °C 1015.5 hPa ENE 4.7 km/h 12.9 km/h 69% 0.0 mm 803.00 W/m2
12:04 15.7 °C 9.6 °C 1015.5 hPa NW 4.7 km/h 9.7 km/h 67% 0.0 mm 691.00 W/m2
12:09 15.5 °C 9.2 °C 1015.5 hPa North 14.3 km/h 16.1 km/h 66% 0.0 mm 385.00 W/m2
12:14 14.9 °C 9.0 °C 1015.1 hPa NW 6.4 km/h 14.5 km/h 68% 0.0 mm 404.00 W/m2
12:19 14.8 °C 8.7 °C 1015.1 hPa North 7.9 km/h 16.1 km/h 67% 0.0 mm 628.00 W/m2
12:24 15.4 °C 9.3 °C 1015.1 hPa NE 6.4 km/h 12.9 km/h 67% 0.0 mm 763.00 W/m2
12:29 16.2 °C 9.6 °C 1015.1 hPa North 11.1 km/h 24.1 km/h 65% 0.0 mm 703.00 W/m2
12:34 15.5 °C 8.9 °C 1015.1 hPa North 7.9 km/h 17.7 km/h 65% 0.0 mm 570.00 W/m2
12:39 15.4 °C 9.1 °C 1015.1 hPa North 6.4 km/h 16.1 km/h 66% 0.0 mm 490.00 W/m2
12:44 15.2 °C 9.1 °C 1015.1 hPa NNE 17.7 km/h 17.7 km/h 67% 0.0 mm 503.00 W/m2
12:49 15.3 °C 9.0 °C 1015.1 hPa NNE 16.3 km/h 20.9 km/h 66% 0.0 mm 490.00 W/m2
12:54 15.8 °C 9.5 °C 1015.1 hPa ENE 7.9 km/h 16.1 km/h 66% 0.0 mm 519.00 W/m2
12:59 15.9 °C 9.6 °C 1015.1 hPa NNE 13.0 km/h 14.5 km/h 66% 0.0 mm 494.00 W/m2
13:04 15.7 °C 9.6 °C 1014.8 hPa ENE 1.4 km/h 14.5 km/h 67% 0.0 mm 385.00 W/m2
13:09 15.7 °C 9.6 °C 1015.1 hPa NNE 4.7 km/h 14.5 km/h 67% 0.0 mm 359.00 W/m2
13:14 15.5 °C 9.4 °C 1014.8 hPa NW 6.4 km/h 14.5 km/h 67% 0.0 mm 380.00 W/m2
13:19 15.0 °C 9.1 °C 1014.8 hPa NNE 13.0 km/h 16.1 km/h 68% 0.0 mm 387.00 W/m2
13:24 15.0 °C 9.1 °C 1014.8 hPa North 3.2 km/h 12.9 km/h 68% 0.0 mm 385.00 W/m2
13:29 15.1 °C 9.2 °C 1014.8 hPa North 1.4 km/h 6.4 km/h 68% 0.0 mm 360.00 W/m2
13:34 15.3 °C 9.4 °C 1014.8 hPa NE 17.7 km/h 17.7 km/h 68% 0.0 mm 325.00 W/m2
13:39 15.2 °C 9.1 °C 1014.8 hPa NNE 3.2 km/h 16.1 km/h 67% 0.0 mm 258.00 W/m2
13:44 14.9 °C 9.0 °C 1014.8 hPa NNE 9.7 km/h 17.7 km/h 68% 0.0 mm 221.00 W/m2
13:49 14.8 °C 9.4 °C 1014.8 hPa NNE 7.9 km/h 12.9 km/h 70% 0.0 mm 151.00 W/m2
13:54 14.8 °C 9.4 °C 1014.8 hPa NE 9.7 km/h 17.7 km/h 70% 0.0 mm 149.00 W/m2
13:59 14.0 °C 9.2 °C 1015.1 hPa NNE 13.0 km/h 20.9 km/h 73% 0.3 mm 120.00 W/m2
14:04 13.5 °C 9.0 °C 1015.1 hPa ENE 7.9 km/h 12.9 km/h 74% 0.3 mm 142.00 W/m2
14:09 13.2 °C 8.9 °C 1015.1 hPa East 14.3 km/h 14.5 km/h 75% 0.5 mm 127.00 W/m2
14:14 13.0 °C 9.1 °C 1015.1 hPa ENE 4.7 km/h 11.3 km/h 77% 0.8 mm 109.00 W/m2
14:19 12.2 °C 8.7 °C 1015.1 hPa Calm   16.1 km/h 79% 0.8 mm 102.00 W/m2
14:24 11.8 °C 8.6 °C 1015.1 hPa NNE 14.3 km/h 20.9 km/h 81% 1.0 mm 127.00 W/m2
14:29 11.4 °C 8.3 °C 1014.8 hPa NE 14.3 km/h 16.1 km/h 81% 1.0 mm 169.00 W/m2
14:34 11.2 °C 8.4 °C 1014.8 hPa NNE 1.4 km/h 19.3 km/h 83% 1.3 mm 209.00 W/m2
14:39 11.3 °C 8.7 °C 1014.8 hPa NW 7.9 km/h 12.9 km/h 84% 1.3 mm 237.00 W/m2
14:44 11.4 °C 9.0 °C 1014.4 hPa North 4.7 km/h 11.3 km/h 85% 1.3 mm 246.00 W/m2
14:49 11.5 °C 9.1 °C 1014.4 hPa North 6.4 km/h 12.9 km/h 85% 1.3 mm 223.00 W/m2
14:54 11.5 °C 9.1 °C 1014.4 hPa NNW 9.7 km/h 14.5 km/h 85% 1.3 mm 216.00 W/m2
14:59 11.6 °C 9.2 °C 1014.4 hPa NNW 6.4 km/h 11.3 km/h 85% 1.0 mm 232.00 W/m2
15:04 11.8 °C 9.4 °C 1014.8 hPa North 7.9 km/h 12.9 km/h 85% 1.0 mm 237.00 W/m2
15:09 11.9 °C 9.5 °C 1014.8 hPa North 14.3 km/h 14.5 km/h 85% 0.8 mm 220.00 W/m2
15:14 12.0 °C 9.6 °C 1014.4 hPa North 4.7 km/h 6.4 km/h 85% 0.5 mm 221.00 W/m2
15:19 12.0 °C 9.6 °C 1014.4 hPa NNE 11.1 km/h 14.5 km/h 85% 0.5 mm 221.00 W/m2
15:24 11.9 °C 9.5 °C 1014.4 hPa NNE 9.7 km/h 12.9 km/h 85% 0.3 mm 197.00 W/m2
15:29 12.0 °C 9.6 °C 1014.4 hPa NW 3.2 km/h 4.8 km/h 85% 0.3 mm 162.00 W/m2
15:34 11.9 °C 9.5 °C 1014.4 hPa NW 7.9 km/h 12.9 km/h 85% 0.0 mm 125.00 W/m2
15:39 12.0 °C 9.6 °C 1014.4 hPa NW 4.7 km/h 9.7 km/h 85% 0.3 mm 114.00 W/m2
15:44 11.9 °C 9.5 °C 1014.4 hPa Calm   6.4 km/h 85% 0.3 mm 137.00 W/m2
15:49 11.8 °C 9.5 °C 1014.4 hPa NW 1.4 km/h 6.4 km/h 86% 0.3 mm 146.00 W/m2
15:54 11.8 °C 9.5 °C 1014.4 hPa NW 1.4 km/h 3.2 km/h 86% 0.3 mm 104.00 W/m2
15:59 11.8 °C 9.5 °C 1014.4 hPa Calm   3.2 km/h 86% 0.3 mm 146.00 W/m2
16:04 11.8 °C 9.5 °C 1014.4 hPa Calm   6.4 km/h 86% 0.3 mm 179.00 W/m2
16:09 11.8 °C 9.7 °C 1014.4 hPa NNW 3.2 km/h 6.4 km/h 87% 0.3 mm 127.00 W/m2
16:14 11.8 °C 9.7 °C 1014.4 hPa Calm   6.4 km/h 87% 0.5 mm 121.00 W/m2
16:19 11.9 °C 9.8 °C 1014.4 hPa NW 9.7 km/h 9.7 km/h 87% 0.5 mm 155.00 W/m2
16:24 11.7 °C 9.6 °C 1014.4 hPa NW 3.2 km/h 8.0 km/h 87% 0.5 mm 42.00 W/m2
16:29 11.6 °C 9.5 °C 1014.4 hPa NW 13.0 km/h 17.7 km/h 87% 0.8 mm 39.00 W/m2
16:34 11.3 °C 9.4 °C 1014.4 hPa North 16.3 km/h 19.3 km/h 88% 1.0 mm 111.00 W/m2
16:39 11.1 °C 9.2 °C 1014.4 hPa North 13.0 km/h 12.9 km/h 88% 1.0 mm 90.00 W/m2
16:44 10.8 °C 9.1 °C 1014.4 hPa NNW 9.7 km/h 12.9 km/h 89% 1.0 mm 86.00 W/m2
16:49 10.8 °C 9.1 °C 1014.4 hPa NNW 4.7 km/h 8.0 km/h 89% 1.0 mm 141.00 W/m2
16:54 10.8 °C 9.2 °C 1014.4 hPa NW 4.7 km/h 14.5 km/h 90% 1.0 mm 125.00 W/m2
16:59 10.8 °C 9.2 °C 1014.4 hPa NW 4.7 km/h 11.3 km/h 90% 1.3 mm 118.00 W/m2
17:04 10.8 °C 9.2 °C 1014.4 hPa NNE 1.4 km/h 9.7 km/h 90% 1.3 mm 141.00 W/m2
17:09 10.8 °C 9.2 °C 1014.4 hPa North 6.4 km/h 19.3 km/h 90% 1.0 mm 181.00 W/m2
17:14 10.9 °C 9.3 °C 1014.4 hPa NNE 7.9 km/h 16.1 km/h 90% 1.0 mm 218.00 W/m2
17:19 11.0 °C 9.4 °C 1014.4 hPa NW 6.4 km/h 9.7 km/h 90% 1.0 mm 192.00 W/m2
17:24 11.1 °C 9.5 °C 1014.4 hPa NNW 13.0 km/h 12.9 km/h 90% 1.0 mm 167.00 W/m2
17:29 11.1 °C 9.5 °C 1014.4 hPa North 3.2 km/h 19.3 km/h 90% 0.5 mm 160.00 W/m2
17:34 11.0 °C 9.4 °C 1014.4 hPa NW 3.2 km/h 11.3 km/h 90% 0.5 mm 185.00 W/m2
17:39 11.0 °C 9.4 °C 1014.4 hPa NW 14.5 km/h 14.5 km/h 90% 0.3 mm 216.00 W/m2
17:44 11.0 °C 9.4 °C 1014.1 hPa NNW 7.9 km/h 17.7 km/h 90% 0.3 mm 209.00 W/m2
17:49 11.0 °C 9.4 °C 1014.1 hPa NNW 4.7 km/h 14.5 km/h 90% 0.3 mm 193.00 W/m2
17:54 11.0 °C 9.4 °C 1014.1 hPa North 11.1 km/h 14.5 km/h 90% 0.0 mm 178.00 W/m2
17:59 11.1 °C 9.5 °C 1014.1 hPa North 13.0 km/h 16.1 km/h 90% 0.3 mm 158.00 W/m2
18:04 11.0 °C 9.4 °C 1014.1 hPa NW 4.7 km/h 20.9 km/h 90% 0.3 mm 98.00 W/m2
18:09 11.0 °C 9.4 °C 1014.4 hPa NE 4.7 km/h 12.9 km/h 90% 0.3 mm 35.00 W/m2
18:14 10.9 °C 9.3 °C 1014.4 hPa Calm   8.0 km/h 90% 0.5 mm 25.00 W/m2
18:19 10.5 °C 8.9 °C 1014.4 hPa NNE 22.5 km/h 22.5 km/h 90% 1.0 mm 49.00 W/m2
18:24 10.3 °C 8.7 °C 1014.4 hPa ENE 4.7 km/h 11.3 km/h 90% 1.0 mm 84.00 W/m2
18:29 10.2 °C 8.6 °C 1014.4 hPa Calm   8.0 km/h 90% 1.0 mm 84.00 W/m2
18:34 10.3 °C 8.7 °C 1014.4 hPa Calm   16.1 km/h 90% 1.3 mm 51.00 W/m2
18:39 10.2 °C 8.6 °C 1014.4 hPa ENE 4.7 km/h 11.3 km/h 90% 1.3 mm 37.00 W/m2
18:44 10.2 °C 8.6 °C 1014.4 hPa NNE 14.5 km/h 14.5 km/h 90% 1.3 mm 26.00 W/m2
18:49 10.2 °C 8.6 °C 1014.4 hPa NE 6.4 km/h 9.7 km/h 90% 1.3 mm 28.00 W/m2
18:54 10.1 °C 8.5 °C 1014.4 hPa Calm   24.1 km/h 90% 1.5 mm 37.00 W/m2
18:59 9.9 °C 8.3 °C 1014.4 hPa North 4.7 km/h 12.9 km/h 90% 1.3 mm 33.00 W/m2
19:04 9.8 °C 8.2 °C 1014.4 hPa NNE 7.9 km/h 20.9 km/h 90% 1.3 mm 30.00 W/m2
19:09 9.8 °C 8.2 °C 1014.4 hPa ENE 9.7 km/h 17.7 km/h 90% 1.0 mm 37.00 W/m2
19:14 9.7 °C 8.1 °C 1014.4 hPa NNE 3.2 km/h 11.3 km/h 90% 1.0 mm 44.00 W/m2
19:19 9.7 °C 8.1 °C 1014.4 hPa NE 6.4 km/h 11.3 km/h 90% 0.8 mm 39.00 W/m2
19:24 9.5 °C 7.9 °C 1014.4 hPa ENE 16.3 km/h 16.1 km/h 90% 0.5 mm 33.00 W/m2
19:29 9.5 °C 7.9 °C 1014.4 hPa NE 1.4 km/h 4.8 km/h 90% 0.5 mm 32.00 W/m2
19:34 9.5 °C 7.9 °C 1014.4 hPa ENE 1.4 km/h 12.9 km/h 90% 0.8 mm 30.00 W/m2
19:39 9.4 °C 7.8 °C 1014.4 hPa NNE 6.4 km/h 11.3 km/h 90% 0.8 mm 25.00 W/m2
19:44 9.4 °C 7.8 °C 1014.4 hPa NE 4.7 km/h 4.8 km/h 90% 0.8 mm 19.00 W/m2
19:49 9.3 °C 7.7 °C 1014.4 hPa NNE 3.2 km/h 6.4 km/h 90% 0.8 mm 18.00 W/m2
19:54 9.3 °C 7.7 °C 1014.4 hPa NNE 3.2 km/h 6.4 km/h 90% 0.8 mm 16.00 W/m2
19:59 9.2 °C 7.6 °C 1014.4 hPa NNW 1.4 km/h 11.3 km/h 90% 0.8 mm 14.00 W/m2
20:04 9.2 °C 7.6 °C 1014.4 hPa NNW 6.4 km/h 8.0 km/h 90% 0.8 mm 12.00 W/m2
20:09 9.1 °C 7.5 °C 1014.4 hPa North 3.2 km/h 11.3 km/h 90% 0.5 mm 11.00 W/m2
20:14 9.2 °C 7.6 °C 1014.4 hPa WNW 3.2 km/h 9.7 km/h 90% 0.5 mm 9.00 W/m2
20:19 9.1 °C 7.5 °C 1014.4 hPa North 11.1 km/h 11.3 km/h 90% 0.8 mm 7.00 W/m2
20:24 9.0 °C 7.4 °C 1014.4 hPa NW 4.7 km/h 6.4 km/h 90% 0.8 mm 7.00 W/m2
20:29 9.0 °C 7.4 °C 1014.4 hPa NNE 1.4 km/h 1.6 km/h 90% 0.5 mm 5.00 W/m2
20:34 9.0 °C 7.4 °C 1014.4 hPa Calm   8.0 km/h 90% 0.5 mm 0.00 W/m2
20:39 9.0 °C 7.4 °C 1014.4 hPa North 4.7 km/h 8.0 km/h 90% 0.8 mm 0.00 W/m2
20:44 8.9 °C 7.3 °C 1014.4 hPa NNW 3.2 km/h 12.9 km/h 90% 0.8 mm 0.00 W/m2
20:49 8.9 °C 7.3 °C 1014.1 hPa NW 7.9 km/h 16.1 km/h 90% 1.0 mm 0.00 W/m2
20:54 8.8 °C 7.2 °C 1014.1 hPa NNE 7.9 km/h 19.3 km/h 90% 1.0 mm 0.00 W/m2
20:59 8.8 °C 7.4 °C 1014.1 hPa NNW 7.9 km/h 16.1 km/h 91% 1.0 mm 0.00 W/m2
21:04 8.9 °C 7.5 °C 1014.1 hPa NNW 4.7 km/h 17.7 km/h 91% 1.3 mm 0.00 W/m2
21:09 8.8 °C 7.4 °C 1014.1 hPa North 6.4 km/h 16.1 km/h 91% 1.5 mm 0.00 W/m2
21:14 8.7 °C 7.3 °C 1014.1 hPa NNE 13.0 km/h 25.7 km/h 91% 1.8 mm 0.00 W/m2
21:19 8.7 °C 7.3 °C 1014.1 hPa North 11.1 km/h 12.9 km/h 91% 2.0 mm 0.00 W/m2
21:24 8.7 °C 7.3 °C 1014.1 hPa NW 11.1 km/h 17.7 km/h 91% 2.0 mm 0.00 W/m2
21:29 8.7 °C 7.3 °C 1014.4 hPa NNE 22.5 km/h 22.5 km/h 91% 2.3 mm 0.00 W/m2
21:34 8.6 °C 7.2 °C 1014.1 hPa NNE 16.3 km/h 19.3 km/h 91% 2.8 mm 0.00 W/m2
21:39 8.6 °C 7.2 °C 1014.1 hPa North 9.7 km/h 12.9 km/h 91% 3.0 mm 0.00 W/m2
21:44 8.5 °C 7.1 °C 1014.1 hPa NNE 11.1 km/h 16.1 km/h 91% 3.3 mm 0.00 W/m2
21:49 8.5 °C 7.1 °C 1014.1 hPa NNE 7.9 km/h 12.9 km/h 91% 3.3 mm 0.00 W/m2
21:54 8.5 °C 7.1 °C 1013.8 hPa North 6.4 km/h 14.5 km/h 91% 3.6 mm 0.00 W/m2
21:59 8.5 °C 7.1 °C 1013.8 hPa NW 7.9 km/h 14.5 km/h 91% 3.3 mm 0.00 W/m2
22:04 8.5 °C 7.3 °C 1013.4 hPa NNW 16.3 km/h 17.7 km/h 92% 3.3 mm 0.00 W/m2
22:09 8.5 °C 7.3 °C 1013.4 hPa North 19.5 km/h 19.3 km/h 92% 2.8 mm 0.00 W/m2
22:14 8.4 °C 7.2 °C 1013.4 hPa NNE 13.0 km/h 20.9 km/h 92% 2.5 mm 0.00 W/m2
22:19 8.3 °C 7.1 °C 1013.4 hPa NNE 11.1 km/h 17.7 km/h 92% 2.3 mm 0.00 W/m2
22:24 8.4 °C 7.2 °C 1013.4 hPa NNE 4.7 km/h 17.7 km/h 92% 2.0 mm 0.00 W/m2
22:29 8.3 °C 7.1 °C 1013.4 hPa NW 9.7 km/h 22.5 km/h 92% 1.8 mm 0.00 W/m2
22:34 8.4 °C 7.2 °C 1013.4 hPa North 13.0 km/h 35.4 km/h 92% 1.3 mm 0.00 W/m2
22:39 8.4 °C 7.2 °C 1013.4 hPa NNE 11.1 km/h 22.5 km/h 92% 1.0 mm 0.00 W/m2
22:44 8.4 °C 7.2 °C 1013.4 hPa North 9.7 km/h 25.7 km/h 92% 1.0 mm 0.00 W/m2
22:49 8.4 °C 7.2 °C 1013.1 hPa North 9.7 km/h 22.5 km/h 92% 0.5 mm 0.00 W/m2
22:54 8.5 °C 7.1 °C 1013.1 hPa NNE 9.7 km/h 29.0 km/h 91% 0.5 mm 0.00 W/m2
22:59 8.5 °C 7.1 °C 1013.1 hPa WNW 4.7 km/h 19.3 km/h 91% 0.3 mm 0.00 W/m2
23:04 8.5 °C 7.1 °C 1013.1 hPa NNW 14.3 km/h 24.1 km/h 91% 0.3 mm 0.00 W/m2
23:09 8.5 °C 7.1 °C 1013.1 hPa NNE 16.3 km/h 22.5 km/h 91% 0.5 mm 0.00 W/m2
23:14 8.5 °C 7.1 °C 1013.1 hPa North 16.3 km/h 24.1 km/h 91% 0.5 mm 0.00 W/m2
23:19 8.5 °C 7.1 °C 1013.1 hPa North 6.4 km/h 25.7 km/h 91% 0.5 mm 0.00 W/m2
23:24 8.5 °C 7.1 °C 1012.8 hPa North 11.1 km/h 16.1 km/h 91% 0.5 mm 0.00 W/m2
23:29 8.5 °C 7.1 °C 1012.8 hPa NW 7.9 km/h 16.1 km/h 91% 0.3 mm 0.00 W/m2
23:34 8.5 °C 7.1 °C 1012.8 hPa NNE 14.3 km/h 20.9 km/h 91% 0.3 mm 0.00 W/m2
23:39 8.5 °C 7.1 °C 1012.8 hPa NNW 14.3 km/h 16.1 km/h 91% 0.3 mm 0.00 W/m2
23:44 8.5 °C 7.1 °C 1012.8 hPa NNE 30.6 km/h 30.6 km/h 91% 0.5 mm 0.00 W/m2
23:49 8.5 °C 7.1 °C 1012.8 hPa North 11.1 km/h 22.5 km/h 91% 0.5 mm 0.00 W/m2
23:54 8.6 °C 7.1 °C 1012.8 hPa NNE 9.7 km/h 17.7 km/h 90% 0.5 mm 0.00 W/m2
23:59 8.6 °C 7.1 °C 1012.8 hPa NNE 14.3 km/h 16.1 km/h 90% 0.5 mm 0.00 W/m2